sensor_id;sensor_type;location;lat;lon;timestamp;temperature;humidity
47382;DHT22;33128;51.580;5.170;2022-07-29T00:02:01;17.70;99.90
47382;DHT22;33128;51.580;5.170;2022-07-29T00:04:26;17.80;99.90
47382;DHT22;33128;51.580;5.170;2022-07-29T00:06:52;17.70;99.90
47382;DHT22;33128;51.580;5.170;2022-07-29T00:09:17;17.70;99.90
47382;DHT22;33128;51.580;5.170;2022-07-29T00:11:43;17.80;99.90
47382;DHT22;33128;51.580;5.170;2022-07-29T00:14:08;17.70;99.90
47382;DHT22;33128;51.580;5.170;2022-07-29T00:16:34;17.80;99.90
47382;DHT22;33128;51.580;5.170;2022-07-29T00:19:00;17.70;99.90
47382;DHT22;33128;51.580;5.170;2022-07-29T00:21:25;17.70;99.90
47382;DHT22;33128;51.580;5.170;2022-07-29T00:23:51;17.70;99.90
47382;DHT22;33128;51.580;5.170;2022-07-29T00:26:16;17.60;99.90
47382;DHT22;33128;51.580;5.170;2022-07-29T00:28:42;17.70;99.90
47382;DHT22;33128;51.580;5.170;2022-07-29T00:31:07;17.60;99.90
47382;DHT22;33128;51.580;5.170;2022-07-29T00:33:33;17.70;99.90
47382;DHT22;33128;51.580;5.170;2022-07-29T00:35:58;17.60;99.90
47382;DHT22;33128;51.580;5.170;2022-07-29T00:38:24;17.60;99.90
47382;DHT22;33128;51.580;5.170;2022-07-29T00:40:49;17.70;99.90
47382;DHT22;33128;51.580;5.170;2022-07-29T00:43:15;17.60;99.90
47382;DHT22;33128;51.580;5.170;2022-07-29T00:45:42;17.50;99.90
47382;DHT22;33128;51.580;5.170;2022-07-29T00:48:07;17.50;99.90
47382;DHT22;33128;51.580;5.170;2022-07-29T00:50:34;17.50;99.90
47382;DHT22;33128;51.580;5.170;2022-07-29T00:53:00;17.50;99.90
47382;DHT22;33128;51.580;5.170;2022-07-29T00:55:26;17.50;99.90
47382;DHT22;33128;51.580;5.170;2022-07-29T00:57:52;17.50;99.90
47382;DHT22;33128;51.580;5.170;2022-07-29T01:00:18;17.50;99.90
47382;DHT22;33128;51.580;5.170;2022-07-29T01:02:45;17.50;99.90
47382;DHT22;33128;51.580;5.170;2022-07-29T01:05:13;17.50;99.90
47382;DHT22;33128;51.580;5.170;2022-07-29T01:07:39;17.50;99.90
47382;DHT22;33128;51.580;5.170;2022-07-29T01:10:06;17.50;99.90
47382;DHT22;33128;51.580;5.170;2022-07-29T01:12:32;17.40;99.90
47382;DHT22;33128;51.580;5.170;2022-07-29T01:14:59;17.40;99.90
47382;DHT22;33128;51.580;5.170;2022-07-29T01:27:47;17.30;99.90
47382;DHT22;33128;51.580;5.170;2022-07-29T01:30:13;17.30;99.90
47382;DHT22;33128;51.580;5.170;2022-07-29T01:32:39;17.30;99.90
47382;DHT22;33128;51.580;5.170;2022-07-29T01:35:08;17.30;99.90
47382;DHT22;33128;51.580;5.170;2022-07-29T01:40:20;17.30;99.90
47382;DHT22;33128;51.580;5.170;2022-07-29T01:42:54;17.20;99.90
47382;DHT22;33128;51.580;5.170;2022-07-29T01:45:36;17.30;99.90
47382;DHT22;33128;51.580;5.170;2022-07-29T01:48:12;17.30;99.90
47382;DHT22;33128;51.580;5.170;2022-07-29T01:50:46;17.30;99.90
47382;DHT22;33128;51.580;5.170;2022-07-29T01:53:12;17.30;99.90
47382;DHT22;33128;51.580;5.170;2022-07-29T01:55:38;17.20;99.90
47382;DHT22;33128;51.580;5.170;2022-07-29T01:58:05;17.30;99.90
47382;DHT22;33128;51.580;5.170;2022-07-29T02:00:32;17.20;99.90
47382;DHT22;33128;51.580;5.170;2022-07-29T02:03:02;17.20;99.90
47382;DHT22;33128;51.580;5.170;2022-07-29T02:05:29;17.20;99.90
47382;DHT22;33128;51.580;5.170;2022-07-29T02:07:55;17.20;99.90
47382;DHT22;33128;51.580;5.170;2022-07-29T02:10:23;17.20;99.90
47382;DHT22;33128;51.580;5.170;2022-07-29T02:12:50;17.10;99.90
47382;DHT22;33128;51.580;5.170;2022-07-29T02:15:16;17.10;99.90
47382;DHT22;33128;51.580;5.170;2022-07-29T02:17:46;17.10;99.90
47382;DHT22;33128;51.580;5.170;2022-07-29T02:20:14;17.10;99.90
47382;DHT22;33128;51.580;5.170;2022-07-29T02:22:41;17.10;99.90
47382;DHT22;33128;51.580;5.170;2022-07-29T02:25:07;17.10;99.90
47382;DHT22;33128;51.580;5.170;2022-07-29T02:27:33;17.10;99.90
47382;DHT22;33128;51.580;5.170;2022-07-29T02:30:00;17.00;99.90
47382;DHT22;33128;51.580;5.170;2022-07-29T02:32:26;17.00;99.90
47382;DHT22;33128;51.580;5.170;2022-07-29T02:34:52;17.00;99.90
47382;DHT22;33128;51.580;5.170;2022-07-29T02:37:18;17.00;99.90
47382;DHT22;33128;51.580;5.170;2022-07-29T02:39:45;16.90;99.90
47382;DHT22;33128;51.580;5.170;2022-07-29T02:42:15;16.90;99.90
47382;DHT22;33128;51.580;5.170;2022-07-29T02:44:41;16.90;99.90
47382;DHT22;33128;51.580;5.170;2022-07-29T02:47:10;16.90;99.90
47382;DHT22;33128;51.580;5.170;2022-07-29T02:49:38;16.80;99.90
47382;DHT22;33128;51.580;5.170;2022-07-29T02:52:20;16.70;99.90
47382;DHT22;33128;51.580;5.170;2022-07-29T02:54:51;16.70;99.90
47382;DHT22;33128;51.580;5.170;2022-07-29T02:57:21;16.60;99.90
47382;DHT22;33128;51.580;5.170;2022-07-29T02:59:47;16.60;99.90
47382;DHT22;33128;51.580;5.170;2022-07-29T03:02:13;16.60;99.90
47382;DHT22;33128;51.580;5.170;2022-07-29T03:04:40;16.60;99.90
47382;DHT22;33128;51.580;5.170;2022-07-29T03:07:06;16.70;99.90
47382;DHT22;33128;51.580;5.170;2022-07-29T03:09:32;16.70;99.90
47382;DHT22;33128;51.580;5.170;2022-07-29T03:11:58;16.70;99.90
47382;DHT22;33128;51.580;5.170;2022-07-29T03:14:25;16.80;99.90
47382;DHT22;33128;51.580;5.170;2022-07-29T03:16:51;16.80;99.90
47382;DHT22;33128;51.580;5.170;2022-07-29T03:19:17;16.70;99.90
47382;DHT22;33128;51.580;5.170;2022-07-29T03:21:43;16.70;99.90
47382;DHT22;33128;51.580;5.170;2022-07-29T03:24:08;16.50;99.90
47382;DHT22;33128;51.580;5.170;2022-07-29T03:26:34;16.50;99.90
47382;DHT22;33128;51.580;5.170;2022-07-29T03:28:59;16.40;99.90
47382;DHT22;33128;51.580;5.170;2022-07-29T03:31:25;16.40;99.90
47382;DHT22;33128;51.580;5.170;2022-07-29T03:33:50;16.30;99.90
47382;DHT22;33128;51.580;5.170;2022-07-29T03:36:16;16.20;99.90
47382;DHT22;33128;51.580;5.170;2022-07-29T03:38:42;16.20;99.90
47382;DHT22;33128;51.580;5.170;2022-07-29T03:41:09;16.10;99.90
47382;DHT22;33128;51.580;5.170;2022-07-29T03:43:36;16.10;99.90
47382;DHT22;33128;51.580;5.170;2022-07-29T03:46:06;16.10;99.90
47382;DHT22;33128;51.580;5.170;2022-07-29T03:48:33;16.00;99.90
47382;DHT22;33128;51.580;5.170;2022-07-29T03:51:01;16.00;99.90
47382;DHT22;33128;51.580;5.170;2022-07-29T03:53:29;15.90;99.90
47382;DHT22;33128;51.580;5.170;2022-07-29T03:55:56;15.90;99.90
47382;DHT22;33128;51.580;5.170;2022-07-29T03:58:23;15.90;99.90
47382;DHT22;33128;51.580;5.170;2022-07-29T04:00:49;15.90;99.90
47382;DHT22;33128;51.580;5.170;2022-07-29T04:03:15;15.90;99.90
47382;DHT22;33128;51.580;5.170;2022-07-29T04:05:40;15.90;99.90
47382;DHT22;33128;51.580;5.170;2022-07-29T04:08:06;15.90;99.90
47382;DHT22;33128;51.580;5.170;2022-07-29T04:10:31;15.80;99.90
47382;DHT22;33128;51.580;5.170;2022-07-29T04:12:57;15.70;99.90
47382;DHT22;33128;51.580;5.170;2022-07-29T04:15:23;15.70;99.90
47382;DHT22;33128;51.580;5.170;2022-07-29T04:17:48;15.70;99.90
47382;DHT22;33128;51.580;5.170;2022-07-29T04:20:14;15.60;99.90
47382;DHT22;33128;51.580;5.170;2022-07-29T04:22:40;15.60;99.90
47382;DHT22;33128;51.580;5.170;2022-07-29T04:25:05;15.50;99.90
47382;DHT22;33128;51.580;5.170;2022-07-29T04:27:34;15.50;99.90
47382;DHT22;33128;51.580;5.170;2022-07-29T04:30:00;15.50;99.90
47382;DHT22;33128;51.580;5.170;2022-07-29T04:32:25;15.50;99.90
47382;DHT22;33128;51.580;5.170;2022-07-29T04:34:51;15.50;99.90
47382;DHT22;33128;51.580;5.170;2022-07-29T04:37:17;15.50;99.90
47382;DHT22;33128;51.580;5.170;2022-07-29T04:39:42;15.50;99.90
47382;DHT22;33128;51.580;5.170;2022-07-29T04:42:08;15.50;99.90
47382;DHT22;33128;51.580;5.170;2022-07-29T04:44:33;15.50;99.90
47382;DHT22;33128;51.580;5.170;2022-07-29T04:46:58;15.60;99.90
47382;DHT22;33128;51.580;5.170;2022-07-29T04:49:24;15.60;99.90
47382;DHT22;33128;51.580;5.170;2022-07-29T04:51:49;15.70;99.90
47382;DHT22;33128;51.580;5.170;2022-07-29T04:54:15;15.70;99.90
47382;DHT22;33128;51.580;5.170;2022-07-29T04:56:41;15.80;99.90
47382;DHT22;33128;51.580;5.170;2022-07-29T04:59:07;15.80;99.90
47382;DHT22;33128;51.580;5.170;2022-07-29T05:01:32;15.80;99.90
47382;DHT22;33128;51.580;5.170;2022-07-29T05:03:58;15.90;99.90
47382;DHT22;33128;51.580;5.170;2022-07-29T05:06:23;15.90;99.90
47382;DHT22;33128;51.580;5.170;2022-07-29T05:08:49;15.90;99.90
47382;DHT22;33128;51.580;5.170;2022-07-29T05:11:15;15.90;99.90
47382;DHT22;33128;51.580;5.170;2022-07-29T05:13:40;15.90;99.90
47382;DHT22;33128;51.580;5.170;2022-07-29T05:16:07;15.90;99.90
47382;DHT22;33128;51.580;5.170;2022-07-29T05:18:32;16.00;99.90
47382;DHT22;33128;51.580;5.170;2022-07-29T05:20:58;16.00;99.90
47382;DHT22;33128;51.580;5.170;2022-07-29T05:23:24;15.90;99.90
47382;DHT22;33128;51.580;5.170;2022-07-29T05:25:49;16.10;99.90
47382;DHT22;33128;51.580;5.170;2022-07-29T05:28:17;16.20;99.90
47382;DHT22;33128;51.580;5.170;2022-07-29T05:30:43;16.20;99.90
47382;DHT22;33128;51.580;5.170;2022-07-29T05:33:09;16.20;99.90
47382;DHT22;33128;51.580;5.170;2022-07-29T05:35:35;16.20;99.90
47382;DHT22;33128;51.580;5.170;2022-07-29T05:38:02;16.20;99.90
47382;DHT22;33128;51.580;5.170;2022-07-29T05:40:28;16.30;99.90
47382;DHT22;33128;51.580;5.170;2022-07-29T05:42:56;16.30;99.90
47382;DHT22;33128;51.580;5.170;2022-07-29T05:45:21;16.30;99.90
47382;DHT22;33128;51.580;5.170;2022-07-29T05:47:48;16.30;99.90
47382;DHT22;33128;51.580;5.170;2022-07-29T05:50:14;16.20;99.90
47382;DHT22;33128;51.580;5.170;2022-07-29T05:52:39;16.20;99.90
47382;DHT22;33128;51.580;5.170;2022-07-29T05:55:05;16.10;99.90
47382;DHT22;33128;51.580;5.170;2022-07-29T05:57:31;16.00;99.90
47382;DHT22;33128;51.580;5.170;2022-07-29T05:59:56;16.00;99.90
47382;DHT22;33128;51.580;5.170;2022-07-29T06:02:25;16.00;99.90
47382;DHT22;33128;51.580;5.170;2022-07-29T06:04:52;16.20;99.90
47382;DHT22;33128;51.580;5.170;2022-07-29T06:07:18;16.20;99.90
47382;DHT22;33128;51.580;5.170;2022-07-29T06:09:44;16.10;99.90
47382;DHT22;33128;51.580;5.170;2022-07-29T06:12:09;16.20;99.90
47382;DHT22;33128;51.580;5.170;2022-07-29T06:14:35;16.20;99.90
47382;DHT22;33128;51.580;5.170;2022-07-29T06:17:03;16.20;99.90
47382;DHT22;33128;51.580;5.170;2022-07-29T06:19:29;16.30;99.90
47382;DHT22;33128;51.580;5.170;2022-07-29T06:21:55;16.20;99.90
47382;DHT22;33128;51.580;5.170;2022-07-29T06:24:20;16.30;99.90
47382;DHT22;33128;51.580;5.170;2022-07-29T06:26:46;16.30;99.90
47382;DHT22;33128;51.580;5.170;2022-07-29T06:29:11;16.50;99.90
47382;DHT22;33128;51.580;5.170;2022-07-29T06:31:37;16.50;99.90
47382;DHT22;33128;51.580;5.170;2022-07-29T06:34:03;16.50;99.90
47382;DHT22;33128;51.580;5.170;2022-07-29T06:36:29;16.60;99.90
47382;DHT22;33128;51.580;5.170;2022-07-29T06:38:54;16.50;99.90
47382;DHT22;33128;51.580;5.170;2022-07-29T06:41:20;16.50;99.90
47382;DHT22;33128;51.580;5.170;2022-07-29T06:43:45;16.50;99.90
47382;DHT22;33128;51.580;5.170;2022-07-29T06:46:11;16.50;99.90
47382;DHT22;33128;51.580;5.170;2022-07-29T06:48:38;16.50;99.90
47382;DHT22;33128;51.580;5.170;2022-07-29T06:51:04;16.50;99.90
47382;DHT22;33128;51.580;5.170;2022-07-29T06:53:30;16.60;99.90
47382;DHT22;33128;51.580;5.170;2022-07-29T06:55:55;16.90;99.90
47382;DHT22;33128;51.580;5.170;2022-07-29T06:58:21;17.10;99.90
47382;DHT22;33128;51.580;5.170;2022-07-29T07:00:47;17.30;99.90
47382;DHT22;33128;51.580;5.170;2022-07-29T07:03:16;17.40;99.90
47382;DHT22;33128;51.580;5.170;2022-07-29T07:05:42;17.50;99.90
47382;DHT22;33128;51.580;5.170;2022-07-29T07:08:08;17.60;99.90
47382;DHT22;33128;51.580;5.170;2022-07-29T07:10:42;17.70;99.90
47382;DHT22;33128;51.580;5.170;2022-07-29T07:13:08;17.80;99.90
47382;DHT22;33128;51.580;5.170;2022-07-29T07:15:35;18.00;99.90
47382;DHT22;33128;51.580;5.170;2022-07-29T07:18:00;18.10;99.90
47382;DHT22;33128;51.580;5.170;2022-07-29T07:20:26;18.20;99.90
47382;DHT22;33128;51.580;5.170;2022-07-29T07:22:51;18.40;99.90
47382;DHT22;33128;51.580;5.170;2022-07-29T07:25:17;18.50;99.90
47382;DHT22;33128;51.580;5.170;2022-07-29T07:27:45;18.50;99.90
47382;DHT22;33128;51.580;5.170;2022-07-29T07:30:11;18.40;99.90
47382;DHT22;33128;51.580;5.170;2022-07-29T07:32:37;18.50;99.90
47382;DHT22;33128;51.580;5.170;2022-07-29T07:35:05;18.50;99.90
47382;DHT22;33128;51.580;5.170;2022-07-29T07:37:31;18.70;99.90
47382;DHT22;33128;51.580;5.170;2022-07-29T07:39:57;18.90;99.90
47382;DHT22;33128;51.580;5.170;2022-07-29T07:42:23;18.90;99.90
47382;DHT22;33128;51.580;5.170;2022-07-29T07:44:49;19.10;99.90
47382;DHT22;33128;51.580;5.170;2022-07-29T07:47:14;19.20;99.90
47382;DHT22;33128;51.580;5.170;2022-07-29T07:49:40;19.20;99.90
47382;DHT22;33128;51.580;5.170;2022-07-29T07:52:06;19.30;99.90
47382;DHT22;33128;51.580;5.170;2022-07-29T07:54:31;19.00;99.90
47382;DHT22;33128;51.580;5.170;2022-07-29T07:56:57;18.80;99.90
47382;DHT22;33128;51.580;5.170;2022-07-29T07:59:23;18.70;99.90
47382;DHT22;33128;51.580;5.170;2022-07-29T08:01:49;18.50;99.90
47382;DHT22;33128;51.580;5.170;2022-07-29T08:04:14;18.50;99.90
47382;DHT22;33128;51.580;5.170;2022-07-29T08:06:40;18.60;99.90
47382;DHT22;33128;51.580;5.170;2022-07-29T08:09:05;18.80;99.90
47382;DHT22;33128;51.580;5.170;2022-07-29T08:11:31;18.90;99.90
47382;DHT22;33128;51.580;5.170;2022-07-29T08:13:57;19.10;99.90
47382;DHT22;33128;51.580;5.170;2022-07-29T08:16:22;19.20;99.90
47382;DHT22;33128;51.580;5.170;2022-07-29T08:18:50;19.30;99.90
47382;DHT22;33128;51.580;5.170;2022-07-29T08:21:15;19.40;99.90
47382;DHT22;33128;51.580;5.170;2022-07-29T08:23:44;19.60;99.90
47382;DHT22;33128;51.580;5.170;2022-07-29T08:26:15;19.70;99.90
47382;DHT22;33128;51.580;5.170;2022-07-29T08:28:42;19.90;99.90
47382;DHT22;33128;51.580;5.170;2022-07-29T08:31:11;19.90;99.90
47382;DHT22;33128;51.580;5.170;2022-07-29T08:33:37;19.90;99.90
47382;DHT22;33128;51.580;5.170;2022-07-29T08:36:02;19.80;99.90
47382;DHT22;33128;51.580;5.170;2022-07-29T08:38:28;19.60;99.90
47382;DHT22;33128;51.580;5.170;2022-07-29T08:40:54;19.50;99.90
47382;DHT22;33128;51.580;5.170;2022-07-29T08:43:19;19.50;99.90
47382;DHT22;33128;51.580;5.170;2022-07-29T08:45:46;19.50;99.90
47382;DHT22;33128;51.580;5.170;2022-07-29T08:48:12;19.40;99.90
47382;DHT22;33128;51.580;5.170;2022-07-29T08:50:38;19.40;99.90
47382;DHT22;33128;51.580;5.170;2022-07-29T08:53:05;19.40;99.90
47382;DHT22;33128;51.580;5.170;2022-07-29T08:55:31;19.50;99.90
47382;DHT22;33128;51.580;5.170;2022-07-29T08:57:56;19.60;99.90
47382;DHT22;33128;51.580;5.170;2022-07-29T09:00:22;19.70;99.90
47382;DHT22;33128;51.580;5.170;2022-07-29T09:02:49;19.80;99.90
47382;DHT22;33128;51.580;5.170;2022-07-29T09:05:17;19.90;99.90
47382;DHT22;33128;51.580;5.170;2022-07-29T09:07:42;20.10;99.90
47382;DHT22;33128;51.580;5.170;2022-07-29T09:10:09;20.20;99.90
47382;DHT22;33128;51.580;5.170;2022-07-29T09:12:35;20.10;99.90
47382;DHT22;33128;51.580;5.170;2022-07-29T09:15:01;20.00;99.90
47382;DHT22;33128;51.580;5.170;2022-07-29T09:17:43;20.00;99.90
47382;DHT22;33128;51.580;5.170;2022-07-29T09:20:11;20.10;99.90
47382;DHT22;33128;51.580;5.170;2022-07-29T09:22:37;20.10;99.90
47382;DHT22;33128;51.580;5.170;2022-07-29T09:25:06;20.10;99.90
47382;DHT22;33128;51.580;5.170;2022-07-29T09:27:31;20.10;99.90
47382;DHT22;33128;51.580;5.170;2022-07-29T09:30:00;20.20;99.90
47382;DHT22;33128;51.580;5.170;2022-07-29T09:32:27;20.20;99.90
47382;DHT22;33128;51.580;5.170;2022-07-29T09:35:16;20.20;99.90
47382;DHT22;33128;51.580;5.170;2022-07-29T09:37:44;20.20;99.90
47382;DHT22;33128;51.580;5.170;2022-07-29T09:40:15;20.20;99.90
47382;DHT22;33128;51.580;5.170;2022-07-29T09:42:41;20.30;99.90
47382;DHT22;33128;51.580;5.170;2022-07-29T09:45:07;20.30;99.90
47382;DHT22;33128;51.580;5.170;2022-07-29T09:47:47;20.30;99.90
47382;DHT22;33128;51.580;5.170;2022-07-29T09:50:15;20.30;99.90
47382;DHT22;33128;51.580;5.170;2022-07-29T09:52:57;20.40;99.90
47382;DHT22;33128;51.580;5.170;2022-07-29T09:55:26;20.40;99.90
47382;DHT22;33128;51.580;5.170;2022-07-29T09:57:52;20.40;99.90
47382;DHT22;33128;51.580;5.170;2022-07-29T10:00:19;20.50;99.90
47382;DHT22;33128;51.580;5.170;2022-07-29T10:02:48;20.50;99.90
47382;DHT22;33128;51.580;5.170;2022-07-29T10:05:26;20.50;99.90
47382;DHT22;33128;51.580;5.170;2022-07-29T10:08:02;20.50;99.90
47382;DHT22;33128;51.580;5.170;2022-07-29T10:10:33;20.60;99.90
47382;DHT22;33128;51.580;5.170;2022-07-29T10:13:01;20.60;99.90
47382;DHT22;33128;51.580;5.170;2022-07-29T10:15:29;20.60;99.90
47382;DHT22;33128;51.580;5.170;2022-07-29T10:17:59;20.60;99.90
47382;DHT22;33128;51.580;5.170;2022-07-29T10:20:27;20.70;99.90
47382;DHT22;33128;51.580;5.170;2022-07-29T10:22:53;20.70;99.90
47382;DHT22;33128;51.580;5.170;2022-07-29T10:25:20;20.70;99.90
47382;DHT22;33128;51.580;5.170;2022-07-29T10:27:47;20.80;99.90
47382;DHT22;33128;51.580;5.170;2022-07-29T10:30:14;20.80;99.90
47382;DHT22;33128;51.580;5.170;2022-07-29T10:41:28;20.90;99.90
47382;DHT22;33128;51.580;5.170;2022-07-29T10:44:22;20.90;99.90
47382;DHT22;33128;51.580;5.170;2022-07-29T10:46:47;21.00;99.90
47382;DHT22;33128;51.580;5.170;2022-07-29T10:49:17;21.00;99.90
47382;DHT22;33128;51.580;5.170;2022-07-29T10:52:03;21.00;99.90
47382;DHT22;33128;51.580;5.170;2022-07-29T10:57:30;21.10;99.90
47382;DHT22;33128;51.580;5.170;2022-07-29T11:05:15;21.10;99.90
47382;DHT22;33128;51.580;5.170;2022-07-29T11:08:23;21.20;99.90
47382;DHT22;33128;51.580;5.170;2022-07-29T11:11:29;21.20;99.90
47382;DHT22;33128;51.580;5.170;2022-07-29T11:16:07;21.30;99.90
47382;DHT22;33128;51.580;5.170;2022-07-29T11:18:32;21.40;99.90
47382;DHT22;33128;51.580;5.170;2022-07-29T11:20:58;21.40;99.90
47382;DHT22;33128;51.580;5.170;2022-07-29T11:23:32;21.50;99.90
47382;DHT22;33128;51.580;5.170;2022-07-29T11:28:39;21.70;99.90
47382;DHT22;33128;51.580;5.170;2022-07-29T11:31:09;22.00;99.90
47382;DHT22;33128;51.580;5.170;2022-07-29T11:33:38;22.40;99.90
47382;DHT22;33128;51.580;5.170;2022-07-29T11:36:13;22.90;99.90
47382;DHT22;33128;51.580;5.170;2022-07-29T11:38:39;23.30;99.90
47382;DHT22;33128;51.580;5.170;2022-07-29T11:43:47;24.00;99.90
47382;DHT22;33128;51.580;5.170;2022-07-29T11:49:02;24.50;99.90
47382;DHT22;33128;51.580;5.170;2022-07-29T11:51:28;24.70;99.90
47382;DHT22;33128;51.580;5.170;2022-07-29T11:53:53;24.90;99.90
47382;DHT22;33128;51.580;5.170;2022-07-29T11:56:21;25.10;99.90
47382;DHT22;33128;51.580;5.170;2022-07-29T11:58:47;25.20;99.90
47382;DHT22;33128;51.580;5.170;2022-07-29T12:01:14;25.20;99.90
47382;DHT22;33128;51.580;5.170;2022-07-29T12:03:42;25.40;99.90
47382;DHT22;33128;51.580;5.170;2022-07-29T12:06:14;25.40;99.90
47382;DHT22;33128;51.580;5.170;2022-07-29T12:08:41;25.50;99.90
47382;DHT22;33128;51.580;5.170;2022-07-29T12:11:17;25.60;99.70
47382;DHT22;33128;51.580;5.170;2022-07-29T12:13:45;25.60;99.60
47382;DHT22;33128;51.580;5.170;2022-07-29T12:16:11;25.60;99.40
47382;DHT22;33128;51.580;5.170;2022-07-29T12:18:36;25.60;99.30
47382;DHT22;33128;51.580;5.170;2022-07-29T12:21:02;25.70;99.20
47382;DHT22;33128;51.580;5.170;2022-07-29T12:23:34;25.70;99.10
47382;DHT22;33128;51.580;5.170;2022-07-29T12:25:59;25.70;99.10
47382;DHT22;33128;51.580;5.170;2022-07-29T12:28:28;25.70;99.10
47382;DHT22;33128;51.580;5.170;2022-07-29T12:30:54;25.70;99.00
47382;DHT22;33128;51.580;5.170;2022-07-29T12:33:25;25.70;98.90
47382;DHT22;33128;51.580;5.170;2022-07-29T12:36:03;25.70;98.90
47382;DHT22;33128;51.580;5.170;2022-07-29T12:38:29;25.70;98.90
47382;DHT22;33128;51.580;5.170;2022-07-29T12:40:58;25.70;98.90
47382;DHT22;33128;51.580;5.170;2022-07-29T12:43:24;25.70;98.90
47382;DHT22;33128;51.580;5.170;2022-07-29T12:45:52;25.70;98.90
47382;DHT22;33128;51.580;5.170;2022-07-29T12:48:33;25.80;98.80
47382;DHT22;33128;51.580;5.170;2022-07-29T12:51:01;25.80;98.70
47382;DHT22;33128;51.580;5.170;2022-07-29T12:53:27;25.90;98.60
47382;DHT22;33128;51.580;5.170;2022-07-29T12:55:56;25.90;98.50
47382;DHT22;33128;51.580;5.170;2022-07-29T12:58:40;26.00;98.40
47382;DHT22;33128;51.580;5.170;2022-07-29T13:04:03;26.10;98.30
47382;DHT22;33128;51.580;5.170;2022-07-29T13:06:37;26.20;98.20
47382;DHT22;33128;51.580;5.170;2022-07-29T13:14:08;26.40;97.90
47382;DHT22;33128;51.580;5.170;2022-07-29T13:16:34;26.50;98.00
47382;DHT22;33128;51.580;5.170;2022-07-29T13:19:12;26.50;97.70
47382;DHT22;33128;51.580;5.170;2022-07-29T13:21:39;26.50;97.60
47382;DHT22;33128;51.580;5.170;2022-07-29T13:24:07;26.60;97.50
47382;DHT22;33128;51.580;5.170;2022-07-29T13:26:34;26.60;97.40
47382;DHT22;33128;51.580;5.170;2022-07-29T13:28:59;26.60;97.30
47382;DHT22;33128;51.580;5.170;2022-07-29T13:31:25;26.40;97.40
47382;DHT22;33128;51.580;5.170;2022-07-29T13:33:51;26.40;97.90
47382;DHT22;33128;51.580;5.170;2022-07-29T13:36:16;26.50;97.50
47382;DHT22;33128;51.580;5.170;2022-07-29T13:38:42;26.70;97.90
47382;DHT22;33128;51.580;5.170;2022-07-29T13:41:08;26.80;97.20
47382;DHT22;33128;51.580;5.170;2022-07-29T13:43:34;26.80;97.10
47382;DHT22;33128;51.580;5.170;2022-07-29T13:46:00;26.80;97.20
47382;DHT22;33128;51.580;5.170;2022-07-29T13:48:25;26.90;97.00
47382;DHT22;33128;51.580;5.170;2022-07-29T13:50:51;26.90;96.80
47382;DHT22;33128;51.580;5.170;2022-07-29T13:53:16;26.90;97.40
47382;DHT22;33128;51.580;5.170;2022-07-29T13:55:42;26.90;96.90
47382;DHT22;33128;51.580;5.170;2022-07-29T13:58:08;27.00;96.90
47382;DHT22;33128;51.580;5.170;2022-07-29T14:00:33;27.10;96.70
47382;DHT22;33128;51.580;5.170;2022-07-29T14:02:59;27.20;96.60
47382;DHT22;33128;51.580;5.170;2022-07-29T14:05:24;27.20;96.50
47382;DHT22;33128;51.580;5.170;2022-07-29T14:07:50;27.20;96.50
47382;DHT22;33128;51.580;5.170;2022-07-29T14:10:16;27.30;96.50
47382;DHT22;33128;51.580;5.170;2022-07-29T14:12:44;27.30;96.30
47382;DHT22;33128;51.580;5.170;2022-07-29T14:15:10;27.40;96.50
47382;DHT22;33128;51.580;5.170;2022-07-29T14:17:35;27.40;96.20
47382;DHT22;33128;51.580;5.170;2022-07-29T14:20:04;27.40;96.20
47382;DHT22;33128;51.580;5.170;2022-07-29T14:22:30;27.30;96.40
47382;DHT22;33128;51.580;5.170;2022-07-29T14:24:55;27.20;96.60
47382;DHT22;33128;51.580;5.170;2022-07-29T14:27:21;27.30;96.30
47382;DHT22;33128;51.580;5.170;2022-07-29T14:29:46;27.40;96.30
47382;DHT22;33128;51.580;5.170;2022-07-29T14:32:12;27.40;96.00
47382;DHT22;33128;51.580;5.170;2022-07-29T14:34:40;27.50;96.00
47382;DHT22;33128;51.580;5.170;2022-07-29T14:37:06;27.60;96.10
47382;DHT22;33128;51.580;5.170;2022-07-29T14:39:35;27.60;96.30
47382;DHT22;33128;51.580;5.170;2022-07-29T14:42:01;27.70;96.20
47382;DHT22;33128;51.580;5.170;2022-07-29T14:44:26;27.80;96.10
47382;DHT22;33128;51.580;5.170;2022-07-29T14:46:59;27.80;96.00
47382;DHT22;33128;51.580;5.170;2022-07-29T14:49:26;27.80;96.00
47382;DHT22;33128;51.580;5.170;2022-07-29T14:51:51;27.90;95.80
47382;DHT22;33128;51.580;5.170;2022-07-29T14:54:17;27.90;95.70
47382;DHT22;33128;51.580;5.170;2022-07-29T14:56:43;27.90;95.80
47382;DHT22;33128;51.580;5.170;2022-07-29T14:59:08;27.90;95.90
47382;DHT22;33128;51.580;5.170;2022-07-29T15:01:34;27.90;95.90
47382;DHT22;33128;51.580;5.170;2022-07-29T15:04:00;27.90;95.80
47382;DHT22;33128;51.580;5.170;2022-07-29T15:06:26;27.90;95.80
47382;DHT22;33128;51.580;5.170;2022-07-29T15:08:52;27.90;96.10
47382;DHT22;33128;51.580;5.170;2022-07-29T15:11:17;27.90;95.90
47382;DHT22;33128;51.580;5.170;2022-07-29T15:13:43;28.00;95.80
47382;DHT22;33128;51.580;5.170;2022-07-29T15:16:08;28.00;95.70
47382;DHT22;33128;51.580;5.170;2022-07-29T15:18:34;28.00;95.60
47382;DHT22;33128;51.580;5.170;2022-07-29T15:21:06;28.00;95.60
47382;DHT22;33128;51.580;5.170;2022-07-29T15:23:33;28.10;95.70
47382;DHT22;33128;51.580;5.170;2022-07-29T15:26:01;28.10;95.50
47382;DHT22;33128;51.580;5.170;2022-07-29T15:28:27;28.10;95.60
47382;DHT22;33128;51.580;5.170;2022-07-29T15:30:53;28.20;95.70
47382;DHT22;33128;51.580;5.170;2022-07-29T15:33:22;28.20;95.40
47382;DHT22;33128;51.580;5.170;2022-07-29T15:35:48;28.20;95.30
47382;DHT22;33128;51.580;5.170;2022-07-29T15:38:15;28.20;95.90
47382;DHT22;33128;51.580;5.170;2022-07-29T15:40:41;28.20;95.30
47382;DHT22;33128;51.580;5.170;2022-07-29T15:43:08;28.10;95.10
47382;DHT22;33128;51.580;5.170;2022-07-29T15:45:39;28.10;95.10
47382;DHT22;33128;51.580;5.170;2022-07-29T15:48:06;28.10;95.20
47382;DHT22;33128;51.580;5.170;2022-07-29T15:50:33;28.10;95.10
47382;DHT22;33128;51.580;5.170;2022-07-29T15:53:01;28.00;95.20
47382;DHT22;33128;51.580;5.170;2022-07-29T15:55:27;28.10;95.20
47382;DHT22;33128;51.580;5.170;2022-07-29T15:57:53;28.00;95.10
47382;DHT22;33128;51.580;5.170;2022-07-29T16:00:18;27.90;95.20
47382;DHT22;33128;51.580;5.170;2022-07-29T16:02:44;27.80;95.20
47382;DHT22;33128;51.580;5.170;2022-07-29T16:05:10;27.70;95.50
47382;DHT22;33128;51.580;5.170;2022-07-29T16:07:35;27.80;95.70
47382;DHT22;33128;51.580;5.170;2022-07-29T16:10:02;27.80;95.40
47382;DHT22;33128;51.580;5.170;2022-07-29T16:12:28;27.80;95.70
47382;DHT22;33128;51.580;5.170;2022-07-29T16:14:53;27.80;95.70
47382;DHT22;33128;51.580;5.170;2022-07-29T16:17:19;27.70;95.40
47382;DHT22;33128;51.580;5.170;2022-07-29T16:19:45;27.70;95.40